Time;durP1;ratioP1;P1;durP2;ratioP2;P2;SDS_P1;SDS_P2;PMS_P1;PMS_P2;Temp;Humidity;BMP_temperature;BMP_pressure;BME280_temperature;BME280_humidity;BME280_pressure;Samples;Min_cycle;Max_cycle;Signal;HPM_P1;HPM_P2
2022/12/28 00:02:08;;;;;;;2.47;1.83;;;;;;;7.47;88.11;95646.16;5112928;28;20205;-80
2022/12/28 00:04:34;;;;;;;7.28;4.55;;;;;;;7.45;88.82;95651.81;5120661;27;20205;-80
2022/12/28 00:07:01;;;;;;;5.85;2.60;;;;;;;7.43;88.98;95645.09;5119053;27;20225;-80
2022/12/28 00:09:28;;;;;;;4.53;2.45;;;;;;;7.42;89.18;95659.66;5124409;27;20249;-81
2022/12/28 00:11:56;;;;;;;4.30;1.90;;;;;;;7.41;89.25;95652.66;5126251;27;20266;-78
2022/12/28 00:14:23;;;;;;;2.78;1.83;;;;;;;7.43;89.11;95645.09;5122466;27;20225;-80
2022/12/28 00:16:50;;;;;;;4.15;2.45;;;;;;;7.42;89.05;95654.25;5119159;27;20192;-81
2022/12/28 00:19:17;;;;;;;4.25;2.58;;;;;;;7.38;89.16;95647.84;5123677;27;20278;-80
2022/12/28 00:21:45;;;;;;;3.80;2.00;;;;;;;7.39;89.37;95652.13;5126594;27;20224;-79
2022/12/28 00:24:18;;;;;;;3.50;1.88;;;;;;;7.34;89.04;95652.19;5112574;28;20613;-81
2022/12/28 00:26:45;;;;;;;3.15;2.28;;;;;;;7.36;89.18;95655.41;5125970;27;20190;-81
2022/12/28 00:29:14;;;;;;;3.58;2.35;;;;;;;7.41;88.70;95652.66;5112365;28;20202;-80
2022/12/28 00:31:41;;;;;;;3.15;2.25;;;;;;;7.47;87.88;95673.09;5126177;27;20210;-77
2022/12/28 00:34:07;;;;;;;2.30;1.50;;;;;;;7.56;87.33;95660.63;5111737;28;20672;-74
2022/12/28 00:36:34;;;;;;;4.60;2.40;;;;;;;7.60;86.72;95656.28;5131025;27;20227;-79
2022/12/28 00:39:01;;;;;;;3.70;2.50;;;;;;;7.62;86.59;95667.59;5132169;27;20236;-78
2022/12/28 00:41:28;;;;;;;2.58;2.22;;;;;;;7.61;86.45;95668.69;5132048;27;20688;-77
2022/12/28 00:43:55;;;;;;;5.28;3.15;;;;;;;7.62;86.42;95670.28;5120995;27;20242;-78
2022/12/28 00:46:23;;;;;;;4.38;2.40;;;;;;;7.63;86.04;95682.69;5125205;27;20617;-80
2022/12/28 00:48:50;;;;;;;4.78;2.05;;;;;;;7.67;86.17;95678.31;5123843;27;20213;-79
2022/12/28 00:51:18;;;;;;;2.53;1.75;;;;;;;7.70;85.77;95682.34;5131684;27;20262;-79
2022/12/28 00:53:45;;;;;;;4.38;2.33;;;;;;;7.67;85.89;95677.50;5132017;27;20782;-80
2022/12/28 00:56:14;;;;;;;3.45;2.17;;;;;;;7.69;85.81;95676.16;5125786;27;20209;-78
2022/12/28 00:58:42;;;;;;;2.15;1.63;;;;;;;7.73;85.59;95677.19;5117833;27;20229;-78
2022/12/28 01:01:13;;;;;;;4.35;2.15;;;;;;;7.63;85.96;95688.09;5124650;27;20198;-79
2022/12/28 01:03:41;;;;;;;2.25;1.65;;;;;;;7.59;86.15;95692.41;5111149;28;20205;-78
2022/12/28 01:06:11;;;;;;;3.80;2.78;;;;;;;7.61;86.19;95690.25;5118769;27;20536;-78
2022/12/28 01:08:39;;;;;;;2.90;2.10;;;;;;;7.57;87.16;95688.38;5117971;27;20225;-80
2022/12/28 01:11:08;;;;;;;5.10;2.58;;;;;;;7.47;88.23;95684.69;5122901;27;20702;-79
2022/12/28 01:13:35;;;;;;;3.53;2.33;;;;;;;7.42;89.00;95681.22;5125084;27;20319;-79
2022/12/28 01:16:10;;;;;;;3.08;2.25;;;;;;;7.36;89.73;95682.38;5120820;27;20807;-79
2022/12/28 01:18:36;;;;;;;4.05;2.85;;;;;;;7.32;89.60;95675.91;5117693;27;20216;-81
2022/12/28 01:21:10;;;;;;;3.97;2.60;;;;;;;7.28;89.54;95680.25;5120633;27;20198;-80
2022/12/28 01:23:37;;;;;;;5.07;2.72;;;;;;;7.25;89.69;95686.19;5125009;27;20193;-79
2022/12/28 01:26:04;;;;;;;5.45;3.67;;;;;;;7.18;89.45;95677.63;5122968;27;20677;-79
2022/12/28 01:28:31;;;;;;;6.28;3.50;;;;;;;7.14;89.87;95685.47;5125975;27;20297;-79
2022/12/28 01:31:02;;;;;;;9.98;3.78;;;;;;;7.10;89.63;95684.44;5123310;27;20609;-79
2022/12/28 01:33:29;;;;;;;3.88;2.22;;;;;;;7.13;89.84;95683.84;5124603;27;20506;-79
2022/12/28 01:35:55;;;;;;;7.47;3.63;;;;;;;7.12;90.04;95674.97;5124001;27;20287;-80
2022/12/28 01:38:24;;;;;;;8.52;2.85;;;;;;;7.13;89.14;95689.25;5117285;27;20228;-78
2022/12/28 01:40:50;;;;;;;4.63;2.53;;;;;;;7.09;89.30;95683.63;5117976;27;20597;-78
2022/12/28 01:43:17;;;;;;;3.05;2.67;;;;;;;7.10;89.74;95674.47;5130961;27;20709;-78
2022/12/28 01:45:51;;;;;;;5.20;2.95;;;;;;;7.04;89.24;95664.78;5131343;27;20200;-78
2022/12/28 01:48:21;;;;;;;8.88;3.28;;;;;;;6.94;90.04;95664.88;5119254;27;20189;-78
2022/12/28 01:50:49;;;;;;;5.78;2.67;;;;;;;6.99;90.13;95672.09;5130995;27;20277;-79
2022/12/28 01:53:18;;;;;;;8.70;3.78;;;;;;;6.99;89.76;95678.28;5121671;27;20209;-79
2022/12/28 01:55:47;;;;;;;4.68;2.90;;;;;;;6.95;89.39;95671.84;5124495;27;20198;-80
2022/12/28 01:58:18;;;;;;;5.72;3.03;;;;;;;6.94;89.42;95670.25;5128776;27;20284;-78
2022/12/28 02:00:44;;;;;;;5.38;2.58;;;;;;;6.96;88.77;95662.69;5112690;27;20537;-78
2022/12/28 02:03:16;;;;;;;6.60;4.20;;;;;;;6.92;88.81;95660.84;5121498;27;20257;-79
2022/12/28 02:05:46;;;;;;;5.05;3.58;;;;;;;6.96;87.62;95649.22;5117112;27;20250;-78
2022/12/28 02:08:20;;;;;;;3.90;3.13;;;;;;;6.93;87.79;95657.06;5118059;27;20205;-80
2022/12/28 02:10:49;;;;;;;2.70;1.95;;;;;;;6.87;87.82;95644.69;5116983;27;20275;-77
2022/12/28 02:13:18;;;;;;;5.35;2.95;;;;;;;6.82;87.40;95645.53;5116961;27;20599;-78
2022/12/28 02:15:45;;;;;;;6.25;3.22;;;;;;;6.77;87.40;95648.25;5123051;27;20668;-79
2022/12/28 02:18:14;;;;;;;7.18;3.65;;;;;;;6.79;87.29;95662.25;5124466;27;20201;-78
2022/12/28 02:20:51;;;;;;;5.22;3.38;;;;;;;6.76;86.96;95654.72;5122325;27;20282;-80
2022/12/28 02:23:37;;;;;;;5.15;2.92;;;;;;;6.80;86.75;95657.69;5123927;27;20189;-78
2022/12/28 02:26:38;;;;;;;5.55;3.33;;;;;;;6.74;86.24;95638.03;5123553;27;20188;-78
2022/12/28 02:29:35;;;;;;;5.15;2.72;;;;;;;6.73;86.05;95636.44;5109968;28;20257;-77
2022/12/28 02:32:13;;;;;;;6.43;4.07;;;;;;;6.73;85.81;95636.44;5118541;28;20237;-77
2022/12/28 02:34:46;;;;;;;7.22;4.25;;;;;;;6.69;85.53;95635.41;5116865;28;20530;-80
2022/12/28 02:37:19;;;;;;;5.03;2.97;;;;;;;6.68;84.89;95628.41;5119874;28;20291;-78
2022/12/28 02:39:51;;;;;;;4.47;3.13;;;;;;;6.65;85.18;95624.38;5128544;28;20296;-80
2022/12/28 02:42:19;;;;;;;6.93;3.53;;;;;;;6.61;84.55;95622.50;5118098;28;20243;-78
2022/12/28 02:50:16;;;;;;;3.20;2.10;;;;;;;6.71;82.19;95622.44;5118463;28;20714;-78
2022/12/28 02:53:10;;;;;;;3.97;3.00;;;;;;;6.67;82.51;95616.00;5122494;28;20217;-79
2022/12/28 02:56:08;;;;;;;3.60;2.40;;;;;;;6.68;82.25;95628.41;5120609;28;20254;-77
2022/12/28 02:59:14;;;;;;;6.70;3.20;;;;;;;6.64;81.78;95616.56;5122995;28;20189;-79
2022/12/28 03:02:12;;;;;;;4.35;2.95;;;;;;;6.66;81.75;95619.78;5112410;28;20215;-79
2022/12/28 03:04:57;;;;;;;5.25;2.95;;;;;;;6.64;81.76;95616.56;5112081;28;20205;-79
2022/12/28 03:10:19;;;;;;;5.80;2.75;;;;;;;6.61;81.31;95612.53;5114416;28;20193;-78
2022/12/28 03:12:53;;;;;;;4.35;2.72;;;;;;;6.57;81.30;95618.75;5119261;28;20237;-80
2022/12/28 03:15:29;;;;;;;6.50;3.55;;;;;;;6.54;81.89;95622.81;5112810;28;20213;-80
2022/12/28 03:31:56;;;;;;;1.88;1.65;;;;;;;6.37;81.37;95633.94;5119466;27;20200;-75
2022/12/28 03:34:25;;;;;;;3.80;1.77;;;;;;;6.36;81.81;95643.06;5119350;27;20197;-79
2022/12/28 03:36:59;;;;;;;7.55;2.45;;;;;;;6.35;82.01;95646.84;5120030;27;20207;-79
2022/12/28 03:39:34;;;;;;;6.15;2.80;;;;;;;6.30;82.12;95644.16;5119077;27;20279;-79
2022/12/28 03:45:02;;;;;;;5.68;3.60;;;;;;;6.29;82.01;95637.16;5119694;27;20241;-79
2022/12/28 03:47:32;;;;;;;9.57;2.80;;;;;;;6.32;82.21;95636.63;5119630;27;20601;-79
2022/12/28 03:50:01;;;;;;;6.68;3.47;;;;;;;6.23;82.14;95638.28;5134149;27;20193;-79
2022/12/28 03:52:28;;;;;;;6.90;2.85;;;;;;;6.20;82.42;95638.84;5131103;27;20205;-79
2022/12/28 03:54:55;;;;;;;1.05;0.98;;;;;;;6.20;82.04;95638.84;5122332;27;20663;-79
2022/12/28 03:57:23;;;;;;;2.67;1.83;;;;;;;6.16;82.12;95626.19;5124193;27;20197;-78
2022/12/28 03:59:49;;;;;;;2.90;2.13;;;;;;;6.09;82.36;95631.88;5122544;27;20706;-79
2022/12/28 04:02:16;;;;;;;4.25;2.58;;;;;;;6.05;82.64;95636.19;5119588;27;20201;-79
2022/12/28 04:04:44;;;;;;;4.43;2.95;;;;;;;6.07;82.46;95634.84;5123078;27;20305;-77
2022/12/28 04:07:12;;;;;;;4.18;2.50;;;;;;;6.11;81.84;95624.34;5126372;27;20277;-78
2022/12/28 04:09:39;;;;;;;2.53;1.40;;;;;;;6.08;81.92;95624.91;5122797;27;20211;-78
2022/12/28 04:12:06;;;;;;;4.43;2.70;;;;;;;6.12;82.22;95628.66;5119176;27;20220;-78
2022/12/28 04:14:33;;;;;;;8.25;3.05;;;;;;;6.05;82.05;95630.81;5121375;27;20928;-79
2022/12/28 04:16:59;;;;;;;3.63;2.45;;;;;;;5.96;81.78;95616.34;5126338;27;20209;-78
2022/12/28 04:19:26;;;;;;;4.07;2.38;;;;;;;6.05;81.52;95620.06;5123470;27;20224;-78
2022/12/28 04:21:53;;;;;;;5.75;2.75;;;;;;;6.00;81.57;95622.78;5118880;27;20204;-79
2022/12/28 04:24:21;;;;;;;3.90;2.10;;;;;;;6.00;81.74;95633.53;5121626;27;20205;-79
2022/12/28 04:26:48;;;;;;;5.78;2.75;;;;;;;5.98;81.82;95630.31;5126432;27;20586;-79
2022/12/28 04:29:14;;;;;;;4.20;1.75;;;;;;;5.99;81.64;95640.00;5123428;27;20265;-79
2022/12/28 04:31:41;;;;;;;1.75;1.10;;;;;;;5.99;81.40;95645.38;5119088;27;20238;-78
2022/12/28 04:34:08;;;;;;;4.78;1.98;;;;;;;6.05;81.07;95649.66;5120806;27;20205;-78
2022/12/28 04:36:35;;;;;;;2.00;1.75;;;;;;;6.13;80.84;95659.03;5125479;27;20202;-79
2022/12/28 04:39:02;;;;;;;3.50;2.38;;;;;;;6.11;80.65;95659.31;5111931;28;20226;-80
2022/12/28 04:41:30;;;;;;;1.40;1.30;;;;;;;6.16;79.90;95664.66;5125093;27;20606;-79
2022/12/28 04:43:57;;;;;;;4.80;2.92;;;;;;;6.25;79.41;95665.72;5124117;27;20269;-79
2022/12/28 04:46:24;;;;;;;4.07;2.75;;;;;;;6.28;78.97;95651.72;5113785;27;20202;-78
2022/12/28 04:48:51;;;;;;;2.70;1.95;;;;;;;6.27;78.77;95670.84;5111904;28;20659;-79
2022/12/28 04:51:20;;;;;;;2.92;2.13;;;;;;;6.30;78.31;95676.47;5132079;27;20204;-78
2022/12/28 04:53:48;;;;;;;3.65;2.03;;;;;;;6.26;78.36;95672.72;5117880;27;20433;-79
2022/12/28 04:56:16;;;;;;;4.47;2.33;;;;;;;6.31;78.28;95679.94;5116992;27;20197;-78
2022/12/28 04:58:45;;;;;;;2.13;1.45;;;;;;;6.36;77.47;95659.22;5125804;27;20205;-78
2022/12/28 05:01:14;;;;;;;2.85;1.60;;;;;;;6.36;77.51;95680.75;5119720;27;20710;-78
2022/12/28 05:03:43;;;;;;;3.88;2.13;;;;;;;6.37;76.56;95665.41;5117917;27;20201;-77
2022/12/28 05:06:12;;;;;;;3.67;2.45;;;;;;;6.39;77.03;95664.06;5132140;27;20213;-78
2022/12/28 05:08:40;;;;;;;3.22;2.08;;;;;;;6.31;77.24;95661.94;5118195;27;20661;-79
2022/12/28 05:11:08;;;;;;;1.73;1.25;;;;;;;6.31;77.08;95656.53;5123657;27;20266;-79
2022/12/28 05:13:36;;;;;;;3.22;2.30;;;;;;;6.29;77.44;95653.31;5124972;27;20229;-79
2022/12/28 05:16:07;;;;;;;7.07;2.72;;;;;;;6.35;76.49;95654.91;5121876;27;20201;-78
2022/12/28 05:18:35;;;;;;;3.17;1.48;;;;;;;6.32;76.39;95658.16;5118440;27;20193;-79
2022/12/28 05:21:03;;;;;;;1.30;1.08;;;;;;;6.34;76.47;95656.00;5121044;27;20274;-79
2022/12/28 05:23:30;;;;;;;2.40;0.85;;;;;;;6.36;76.26;95653.84;5129552;27;20285;-79
2022/12/28 05:25:57;;;;;;;3.65;2.38;;;;;;;6.35;76.32;95657.63;5131392;27;20197;-79
2022/12/28 05:28:25;;;;;;;6.20;1.45;;;;;;;6.36;76.31;95656.53;5113460;27;20201;-79
2022/12/28 05:30:52;;;;;;;3.58;1.90;;;;;;;6.31;76.65;95656.53;5122814;27;20262;-79
2022/12/28 05:33:21;;;;;;;6.50;1.77;;;;;;;6.33;76.11;95658.97;5117815;27;20197;-79
2022/12/28 05:35:47;;;;;;;1.30;0.98;;;;;;;6.32;75.80;95674.31;5119965;27;20625;-79
2022/12/28 05:38:14;;;;;;;2.22;1.10;;;;;;;6.32;75.69;95682.38;5129642;27;20270;-78
2022/12/28 05:40:41;;;;;;;2.10;1.52;;;;;;;6.23;75.69;95675.97;5119197;27;20229;-78
2022/12/28 05:43:07;;;;;;;1.67;1.25;;;;;;;6.22;74.91;95679.72;5124606;27;20202;-79
2022/12/28 05:45:34;;;;;;;1.67;1.25;;;;;;;6.22;74.49;95684.28;5123614;27;20201;-78
2022/12/28 05:48:01;;;;;;;2.33;1.58;;;;;;;6.23;73.07;95686.72;5117623;27;20249;-78
2022/12/28 05:50:29;;;;;;;3.25;1.95;;;;;;;6.21;73.05;95693.44;5131199;27;20208;-79
2022/12/28 05:52:57;;;;;;;2.10;1.40;;;;;;;6.12;73.29;95690.53;5123980;27;20879;-78
2022/12/28 05:55:28;;;;;;;1.90;1.50;;;;;;;6.10;72.63;95695.38;5124719;27;20208;-78
2022/12/28 05:57:55;;;;;;;2.92;1.73;;;;;;;6.11;72.96;95698.84;5118485;27;20243;-79
2022/12/28 06:00:22;;;;;;;2.20;1.60;;;;;;;6.09;72.70;95693.75;5123571;27;20239;-79
2022/12/28 06:02:49;;;;;;;2.15;1.73;;;;;;;6.05;72.85;95700.75;5118621;27;20208;-80
2022/12/28 06:05:17;;;;;;;3.75;2.25;;;;;;;6.03;73.25;95697.53;5116668;27;20246;-79
2022/12/28 06:07:45;;;;;;;2.75;2.03;;;;;;;6.04;73.82;95701.81;5118959;27;20208;-80
2022/12/28 06:10:16;;;;;;;2.00;1.33;;;;;;;6.12;73.33;95703.97;5131023;27;20589;-80
2022/12/28 06:12:43;;;;;;;3.67;2.30;;;;;;;6.04;73.61;95704.50;5121600;27;20232;-82
2022/12/28 06:15:10;;;;;;;1.67;1.25;;;;;;;6.06;73.46;95707.75;5124525;27;20193;-81
2022/12/28 06:17:37;;;;;;;2.25;1.40;;;;;;;6.15;73.56;95710.69;5119454;27;20209;-79
2022/12/28 06:20:04;;;;;;;1.67;1.25;;;;;;;6.22;73.53;95717.38;5117364;27;20278;-79
2022/12/28 06:22:31;;;;;;;1.88;1.13;;;;;;;6.22;73.28;95714.69;5121476;27;20267;-79
2022/12/28 06:24:59;;;;;;;2.80;1.80;;;;;;;6.15;73.74;95706.09;5124685;27;20204;-78
2022/12/28 06:27:26;;;;;;;6.45;1.75;;;;;;;6.20;74.28;95707.97;5121749;27;20201;-78
2022/12/28 06:29:53;;;;;;;2.17;1.85;;;;;;;6.19;73.69;95703.66;5117597;27;20633;-80
2022/12/28 06:32:19;;;;;;;3.45;1.95;;;;;;;6.17;74.45;95706.63;5120548;27;20247;-79
2022/12/28 06:34:46;;;;;;;6.15;3.28;;;;;;;6.19;74.10;95706.34;5124400;28;20661;-79
2022/12/28 06:37:13;;;;;;;6.65;2.50;;;;;;;6.34;74.23;95709.00;5120101;28;20253;-80
2022/12/28 06:39:40;;;;;;;5.57;2.42;;;;;;;6.35;74.44;95702.56;5127373;28;20266;-79
2022/12/28 06:42:08;;;;;;;3.08;1.92;;;;;;;6.38;74.12;95705.50;5110590;28;20266;-79
2022/12/28 06:44:34;;;;;;;3.90;1.83;;;;;;;6.35;74.52;95714.13;5123751;28;20201;-79
2022/12/28 06:47:01;;;;;;;3.53;2.10;;;;;;;6.30;74.51;95708.75;5121111;28;20251;-79
2022/12/28 06:49:28;;;;;;;4.20;2.55;;;;;;;6.24;74.59;95720.63;5117259;28;20647;-78
2022/12/28 06:51:55;;;;;;;6.50;3.42;;;;;;;6.25;74.81;95724.91;5130917;28;20566;-80
2022/12/28 06:54:21;;;;;;;11.82;3.45;;;;;;;6.25;75.42;95722.22;5112149;28;20197;-78
2022/12/28 06:56:48;;;;;;;3.33;1.90;;;;;;;6.40;74.63;95714.13;5116335;28;20193;-78
2022/12/28 06:59:16;;;;;;;5.95;2.40;;;;;;;6.51;74.49;95724.84;5124339;28;20201;-79
2022/12/28 07:01:44;;;;;;;3.15;1.70;;;;;;;6.50;74.76;95717.84;5122026;28;20292;-78
2022/12/28 07:04:11;;;;;;;3.83;2.45;;;;;;;6.41;75.35;95715.72;5127638;27;20200;-79
2022/12/28 07:06:41;;;;;;;6.85;2.10;;;;;;;6.52;75.34;95715.69;5127106;27;20419;-80
2022/12/28 07:09:11;;;;;;;3.53;2.15;;;;;;;6.59;75.00;95710.81;5121615;27;20209;-80
2022/12/28 07:11:37;;;;;;;7.03;1.98;;;;;;;6.55;74.97;95702.50;5134767;27;20224;-79
2022/12/28 07:14:04;;;;;;;4.20;2.92;;;;;;;6.61;75.33;95706.75;5114197;28;20632;-80
2022/12/28 07:16:33;;;;;;;3.25;2.05;;;;;;;6.74;74.85;95702.66;5127776;27;20201;-80
2022/12/28 07:19:00;;;;;;;4.05;2.35;;;;;;;6.55;75.50;95709.75;5122075;27;20276;-78
2022/12/28 07:21:29;;;;;;;4.43;1.98;;;;;;;6.64;75.29;95713.47;5134419;27;20254;-79
2022/12/28 07:23:57;;;;;;;1.80;1.50;;;;;;;6.62;75.17;95704.88;5126529;27;20780;-78
2022/12/28 07:26:25;;;;;;;3.03;2.33;;;;;;;6.72;75.16;95707.50;5127605;27;20209;-79
2022/12/28 07:28:54;;;;;;;6.03;2.03;;;;;;;6.67;75.21;95712.94;5122209;27;20242;-78
2022/12/28 07:31:23;;;;;;;2.17;1.45;;;;;;;6.71;74.23;95713.97;5117528;27;20202;-78
2022/12/28 07:33:55;;;;;;;1.98;1.20;;;;;;;6.73;73.44;95709.13;5123370;27;20197;-78
2022/12/28 07:36:23;;;;;;;1.85;1.35;;;;;;;6.78;74.11;95709.91;5120446;27;20228;-77
2022/12/28 07:38:51;;;;;;;3.00;1.20;;;;;;;6.84;73.57;95721.44;5122773;27;20241;-78
2022/12/28 07:41:20;;;;;;;4.22;2.55;;;;;;;6.97;73.33;95723.53;5126846;27;20225;-79
2022/12/28 07:43:47;;;;;;;2.13;1.75;;;;;;;7.22;73.38;95729.88;5125207;27;20201;-79
2022/12/28 07:46:16;;;;;;;5.72;2.95;;;;;;;7.38;71.99;95729.50;5119833;27;20197;-79
2022/12/28 07:48:44;;;;;;;6.95;2.72;;;;;;;7.53;72.39;95731.28;5134252;27;20201;-79
2022/12/28 07:51:15;;;;;;;5.55;2.65;;;;;;;7.59;71.94;95734.75;5133893;27;20261;-81
2022/12/28 07:53:43;;;;;;;8.55;2.95;;;;;;;7.55;72.08;95742.59;5134036;27;20261;-78
2022/12/28 07:56:11;;;;;;;1.25;1.20;;;;;;;7.42;72.09;95740.53;5132996;27;20605;-78
2022/12/28 07:58:39;;;;;;;4.60;2.65;;;;;;;7.32;73.48;95740.59;5126248;27;20257;-78
2022/12/28 08:01:08;;;;;;;7.10;2.53;;;;;;;7.55;73.02;95737.19;5119249;27;20233;-79
2022/12/28 08:03:35;;;;;;;2.35;2.00;;;;;;;7.46;73.80;95741.59;5119539;27;20193;-78
2022/12/28 08:06:08;;;;;;;3.63;2.53;;;;;;;7.49;74.18;95741.84;5126304;27;20769;-80
2022/12/28 08:08:37;;;;;;;5.28;2.25;;;;;;;7.39;74.10;95735.69;5114887;27;20186;-79
2022/12/28 08:11:06;;;;;;;6.22;2.47;;;;;;;7.41;73.80;95736.22;5133836;27;20697;-81
2022/12/28 08:13:34;;;;;;;5.22;3.10;;;;;;;7.59;73.32;95732.88;5117709;27;20237;-80
2022/12/28 08:16:01;;;;;;;4.70;3.00;;;;;;;7.81;72.95;95729.72;5121274;27;20246;-80
2022/12/28 08:18:28;;;;;;;4.95;2.75;;;;;;;7.91;72.36;95726.16;5120272;27;20212;-80
2022/12/28 08:21:00;;;;;;;7.32;3.47;;;;;;;7.60;73.09;95731.78;5123869;27;20279;-79
2022/12/28 08:23:30;;;;;;;4.80;2.95;;;;;;;7.76;72.35;95725.19;5126935;27;20713;-80
2022/12/28 08:26:05;;;;;;;4.95;2.88;;;;;;;8.02;71.69;95727.66;5123900;27;20201;-81
2022/12/28 08:28:32;;;;;;;3.85;2.10;;;;;;;8.05;71.56;95727.09;5127335;27;20628;-80
2022/12/28 08:31:05;;;;;;;2.85;1.98;;;;;;;8.15;70.56;95741.28;5125337;27;20212;-80
2022/12/28 08:33:31;;;;;;;4.90;2.97;;;;;;;8.12;70.95;95738.34;5112437;28;20201;-80
2022/12/28 08:35:58;;;;;;;7.15;3.17;;;;;;;7.75;71.76;95734.34;5126060;27;20197;-78
2022/12/28 08:38:25;;;;;;;5.47;3.22;;;;;;;7.78;71.72;95730.31;5118578;27;20229;-78
2022/12/28 08:40:55;;;;;;;9.32;3.92;;;;;;;7.82;70.94;95740.22;5118952;27;20229;-80
2022/12/28 08:43:23;;;;;;;7.60;4.68;;;;;;;7.54;71.83;95743.69;5112993;28;20208;-78
2022/12/28 08:45:57;;;;;;;7.45;3.20;;;;;;;7.39;72.02;95736.50;5125854;27;20201;-79
2022/12/28 08:48:24;;;;;;;9.27;4.25;;;;;;;7.24;72.78;95744.69;5120421;27;20562;-79
2022/12/28 08:50:50;;;;;;;8.68;3.92;;;;;;;7.13;72.93;95737.75;5118065;27;20660;-80
2022/12/28 08:53:17;;;;;;;9.68;4.63;;;;;;;7.25;72.60;95740.09;5122688;27;20201;-78
2022/12/28 08:55:44;;;;;;;7.93;4.10;;;;;;;7.06;72.28;95732.66;5114606;27;20208;-78
2022/12/28 08:58:11;;;;;;;11.05;4.45;;;;;;;7.07;72.44;95731.59;5123076;27;20210;-79
2022/12/28 09:00:39;;;;;;;5.53;2.83;;;;;;;7.13;71.96;95725.06;5128471;27;20201;-79
2022/12/28 09:03:05;;;;;;;5.18;2.95;;;;;;;7.21;71.67;95722.88;5122016;27;20660;-79
2022/12/28 09:05:32;;;;;;;5.30;2.67;;;;;;;7.13;72.21;95721.56;5111266;28;20225;-79
2022/12/28 09:07:59;;;;;;;4.63;2.22;;;;;;;7.26;71.85;95720.16;5122445;27;20591;-79
2022/12/28 09:10:26;;;;;;;3.53;1.60;;;;;;;6.93;71.69;95717.13;5118734;27;20201;-79
2022/12/28 09:12:53;;;;;;;1.08;1.00;;;;;;;6.87;71.23;95718.22;5122323;27;20290;-78
2022/12/28 09:15:19;;;;;;;3.95;2.25;;;;;;;6.72;71.48;95710.22;5125231;27;20202;-78
2022/12/28 09:17:48;;;;;;;5.53;2.38;;;;;;;6.67;72.06;95707.56;5121510;27;20201;-79
2022/12/28 09:20:14;;;;;;;5.45;2.95;;;;;;;6.80;73.49;95701.56;5118015;27;20200;-80
2022/12/28 09:22:41;;;;;;;5.90;3.33;;;;;;;6.83;73.15;95698.31;5132072;27;20229;-80
2022/12/28 09:25:11;;;;;;;5.93;3.38;;;;;;;7.06;72.60;95697.66;5118171;27;20205;-80
2022/12/28 09:27:38;;;;;;;9.07;3.78;;;;;;;7.21;71.39;95707.53;5121119;27;20205;-80
2022/12/28 09:30:06;;;;;;;5.53;3.47;;;;;;;7.32;71.10;95700.19;5126207;27;20266;-79
2022/12/28 09:32:33;;;;;;;8.77;4.15;;;;;;;7.30;71.26;95699.66;5122828;27;20205;-79
2022/12/28 09:35:01;;;;;;;5.43;3.40;;;;;;;7.54;71.60;95695.16;5117711;27;20196;-79
2022/12/28 09:37:28;;;;;;;6.82;3.92;;;;;;;7.65;71.54;95702.09;5119546;27;20906;-79
2022/12/28 09:39:54;;;;;;;4.22;2.10;;;;;;;7.41;70.18;95690.41;5116506;27;20205;-79
2022/12/28 09:42:26;;;;;;;4.80;1.90;;;;;;;7.20;71.35;95691.63;5131534;27;20232;-79
2022/12/28 09:45:03;;;;;;;8.32;3.13;;;;;;;7.26;71.60;95687.81;5118049;27;20189;-79
2022/12/28 09:47:36;;;;;;;3.83;2.05;;;;;;;7.05;71.45;95682.56;5117524;27;20240;-79
2022/12/28 09:50:27;;;;;;;4.13;3.20;;;;;;;7.25;71.26;95680.81;5121628;27;20190;-79
2022/12/28 09:53:16;;;;;;;5.00;3.08;;;;;;;7.34;71.63;95679.13;5124787;27;20203;-80
2022/12/28 09:55:51;;;;;;;8.38;3.30;;;;;;;7.66;70.22;95668.63;5113430;27;20345;-80
2022/12/28 09:58:18;;;;;;;5.35;2.67;;;;;;;7.95;68.95;95663.22;5123427;27;20579;-79
2022/12/28 10:00:47;;;;;;;4.68;2.80;;;;;;;8.24;68.74;95660.50;5117559;27;20250;-80
2022/12/28 10:03:18;;;;;;;7.82;3.13;;;;;;;8.43;67.78;95653.28;5109261;28;20481;-79
2022/12/28 10:05:47;;;;;;;6.57;3.35;;;;;;;8.44;66.83;95649.50;5124823;27;20240;-79
2022/12/28 10:08:17;;;;;;;4.80;2.75;;;;;;;8.23;66.96;95645.38;5122922;27;20253;-79
2022/12/28 10:10:44;;;;;;;8.77;4.72;;;;;;;8.06;67.14;95648.53;5112818;27;20200;-79
2022/12/28 10:13:18;;;;;;;4.13;2.33;;;;;;;8.35;66.81;95640.41;5131223;27;20660;-80
2022/12/28 10:15:45;;;;;;;4.20;2.50;;;;;;;8.63;66.00;95637.91;5118477;27;20412;-81
2022/12/28 10:18:14;;;;;;;9.27;5.18;;;;;;;8.76;65.63;95635.28;5117631;27;20202;-80
2022/12/28 10:20:43;;;;;;;7.18;3.60;;;;;;;8.64;67.00;95631.41;5122796;27;20284;-80
2022/12/28 10:23:18;;;;;;;14.20;7.30;;;;;;;8.45;67.29;95640.31;5124845;27;20229;-80
2022/12/28 10:25:46;;;;;;;10.07;5.10;;;;;;;8.57;66.82;95639.06;5111433;28;20197;-81
2022/12/28 10:28:16;;;;;;;6.68;3.47;;;;;;;8.55;66.65;95639.38;5124362;27;20809;-79
2022/12/28 10:30:49;;;;;;;8.18;3.83;;;;;;;8.42;66.43;95635.47;5110881;28;20209;-80
2022/12/28 10:33:17;;;;;;;9.80;5.68;;;;;;;8.92;65.56;95635.88;5124698;27;20606;-79
2022/12/28 10:35:50;;;;;;;6.28;3.28;;;;;;;9.35;64.51;95636.59;5111577;28;20197;-80
2022/12/28 10:38:23;;;;;;;4.80;3.17;;;;;;;9.16;64.45;95627.69;5124660;27;20721;-81
2022/12/28 10:40:58;;;;;;;6.35;3.70;;;;;;;8.77;65.74;95636.09;5125777;28;20275;-80
2022/12/28 10:43:29;;;;;;;6.88;2.97;;;;;;;8.81;65.96;95634.44;5120721;28;20208;-80
2022/12/28 10:45:58;;;;;;;10.65;6.55;;;;;;;8.72;65.67;95633.47;5118372;28;20736;-80
2022/12/28 10:48:28;;;;;;;9.48;4.55;;;;;;;9.10;65.03;95624.28;5122960;28;20711;-80
2022/12/28 10:50:56;;;;;;;8.60;4.45;;;;;;;9.49;63.84;95615.00;5114461;28;20193;-82
2022/12/28 10:53:28;;;;;;;7.35;4.13;;;;;;;9.24;63.69;95613.53;5120595;28;20590;-80
2022/12/28 10:56:03;;;;;;;11.40;4.97;;;;;;;9.37;64.50;95612.78;5123985;28;20200;-80
2022/12/28 10:58:30;;;;;;;6.20;3.88;;;;;;;9.07;64.51;95618.66;5099339;28;20232;-80
2022/12/28 11:00:59;;;;;;;6.50;3.20;;;;;;;8.78;65.03;95613.38;5130222;28;20200;-78
2022/12/28 11:03:27;;;;;;;7.35;4.85;;;;;;;8.78;65.14;95614.19;5131090;28;20300;-79
2022/12/28 11:06:25;;;;;;;12.25;7.28;;;;;;;8.41;66.09;95617.66;5117061;28;20217;-79
2022/12/28 11:09:06;;;;;;;4.88;3.00;;;;;;;8.47;66.40;95627.28;5066988;28;20282;-80
2022/12/28 11:11:33;;;;;;;9.23;3.72;;;;;;;8.66;65.39;95621.13;5122192;28;20208;-80
2022/12/28 11:14:07;;;;;;;7.50;3.88;;;;;;;8.45;66.56;95626.81;5117364;28;20289;-80
2022/12/28 11:16:37;;;;;;;9.32;3.63;;;;;;;8.66;65.79;95629.22;5129693;28;20193;-80
2022/12/28 11:19:04;;;;;;;5.50;3.05;;;;;;;9.06;64.68;95628.66;5118170;28;20189;-81
2022/12/28 11:21:33;;;;;;;5.53;3.60;;;;;;;9.12;65.15;95632.91;5117755;28;20285;-81
2022/12/28 11:24:02;;;;;;;6.43;3.20;;;;;;;9.20;64.48;95629.53;5130793;28;20242;-80
2022/12/28 11:26:30;;;;;;;8.77;4.18;;;;;;;9.60;64.05;95627.25;5130739;28;20222;-81
2022/12/28 11:29:02;;;;;;;9.60;4.40;;;;;;;9.76;62.56;95631.31;5121738;28;20194;-81
2022/12/28 11:31:33;;;;;;;8.93;4.20;;;;;;;9.88;62.85;95637.03;5124464;28;20235;-82
2022/12/28 11:34:03;;;;;;;6.25;3.35;;;;;;;9.97;62.74;95637.19;5121214;28;20540;-81
2022/12/28 11:36:31;;;;;;;7.18;3.55;;;;;;;9.25;63.50;95632.16;5116631;27;20213;-80
2022/12/28 11:38:58;;;;;;;6.57;4.07;;;;;;;8.92;65.08;95633.19;5118647;28;20201;-81
2022/12/28 11:41:42;;;;;;;7.47;3.53;;;;;;;8.72;65.95;95638.88;5128390;28;20204;-81
2022/12/28 11:44:21;;;;;;;7.25;3.45;;;;;;;8.77;66.16;95628.78;5114661;28;20257;-82
2022/12/28 11:47:02;;;;;;;6.88;3.80;;;;;;;8.43;66.07;95631.69;5130668;28;20181;-81
2022/12/28 11:49:32;;;;;;;6.68;3.22;;;;;;;8.14;66.99;95637.13;5117110;28;20250;-80
2022/12/28 11:52:38;;;;;;;5.85;2.33;;;;;;;8.21;66.58;95624.06;5120796;27;20190;-81
2022/12/28 11:55:38;;;;;;;6.28;2.67;;;;;;;8.13;67.10;95632.00;5060560;28;20655;-82
2022/12/28 11:58:52;;;;;;;15.52;4.18;;;;;;;7.95;68.21;95624.66;5133467;27;20205;-81
2022/12/28 12:01:42;;;;;;;3.67;2.70;;;;;;;8.07;68.09;95622.34;5093996;27;20209;-81
2022/12/28 12:04:39;;;;;;;8.35;4.00;;;;;;;8.06;68.07;95615.38;5120374;27;20204;-81
2022/12/28 12:07:41;;;;;;;11.32;6.57;;;;;;;8.25;68.55;95613.50;5120062;27;20198;-81
2022/12/28 12:10:34;;;;;;;12.45;6.75;;;;;;;8.09;68.08;95609.38;5120448;27;20197;-81
2022/12/28 12:13:23;;;;;;;9.00;3.83;;;;;;;8.06;68.88;95604.56;5122079;27;20720;-80
2022/12/28 12:15:52;;;;;;;13.75;6.95;;;;;;;7.96;69.57;95610.06;5113639;28;20653;-82
2022/12/28 12:18:23;;;;;;;16.08;8.60;;;;;;;7.87;71.50;95606.41;5126677;27;20230;-82
2022/12/28 12:20:59;;;;;;;10.55;5.32;;;;;;;7.37;72.58;95598.53;5122002;27;20189;-80
2022/12/28 12:23:39;;;;;;;10.32;5.65;;;;;;;7.12;75.15;95591.44;5119357;27;20228;-79